Terminal Aerodrome Forecast
Issued by NWS

Home | Current Version | Previous Version | Text Only | Print | Product List | Glossary On
Versions: 1 2 3 4 5 6 7 8 9 10 11 12
861
FTUS46 KPDT 232320
TAFDLS
TAF
KDLS 232320Z 2400/2424 31015G25KT P6SM SKC
     FM240300 31020G30KT P6SM SKC
     FM241500 32020G30KT P6SM FEW060=

USA.gov is the U.S. government's official web portal to all federal, state and local government web resources and services.